sensor_id;sensor_type;location;lat;lon;timestamp;P1;durP1;ratioP1;P2;durP2;ratioP2
6093;SDS011;19964;42.060;24.700;2023-11-22T00:01:09;11.37;;;8.00;;
6093;SDS011;19964;42.060;24.700;2023-11-22T00:03:39;13.77;;;8.83;;
6093;SDS011;19964;42.060;24.700;2023-11-22T00:06:06;44.87;;;30.97;;
6093;SDS011;19964;42.060;24.700;2023-11-22T00:08:35;13.47;;;10.70;;
6093;SDS011;19964;42.060;24.700;2023-11-22T00:11:02;9.97;;;8.13;;
6093;SDS011;19964;42.060;24.700;2023-11-22T00:13:30;81.70;;;53.73;;
6093;SDS011;19964;42.060;24.700;2023-11-22T00:15:57;15.20;;;10.13;;
6093;SDS011;19964;42.060;24.700;2023-11-22T00:18:24;9.90;;;8.47;;
6093;SDS011;19964;42.060;24.700;2023-11-22T00:20:52;13.90;;;8.67;;
6093;SDS011;19964;42.060;24.700;2023-11-22T00:23:20;9.67;;;7.43;;
6093;SDS011;19964;42.060;24.700;2023-11-22T00:25:53;9.10;;;7.47;;
6093;SDS011;19964;42.060;24.700;2023-11-22T00:28:20;8.57;;;7.67;;
6093;SDS011;19964;42.060;24.700;2023-11-22T00:30:47;8.03;;;6.93;;
6093;SDS011;19964;42.060;24.700;2023-11-22T00:33:15;8.67;;;7.77;;
6093;SDS011;19964;42.060;24.700;2023-11-22T00:35:45;8.60;;;6.93;;
6093;SDS011;19964;42.060;24.700;2023-11-22T00:38:12;9.37;;;7.20;;
6093;SDS011;19964;42.060;24.700;2023-11-22T00:40:39;7.77;;;6.97;;
6093;SDS011;19964;42.060;24.700;2023-11-22T00:43:07;10.87;;;7.00;;
6093;SDS011;19964;42.060;24.700;2023-11-22T00:45:34;9.50;;;6.57;;
6093;SDS011;19964;42.060;24.700;2023-11-22T00:48:01;9.47;;;7.37;;
6093;SDS011;19964;42.060;24.700;2023-11-22T00:50:28;8.67;;;6.60;;
6093;SDS011;19964;42.060;24.700;2023-11-22T00:52:55;8.60;;;6.30;;
6093;SDS011;19964;42.060;24.700;2023-11-22T00:55:22;6.80;;;6.13;;
6093;SDS011;19964;42.060;24.700;2023-11-22T00:57:48;8.23;;;5.73;;
6093;SDS011;19964;42.060;24.700;2023-11-22T01:00:17;6.80;;;6.10;;
6093;SDS011;19964;42.060;24.700;2023-11-22T01:02:44;8.03;;;6.20;;
6093;SDS011;19964;42.060;24.700;2023-11-22T01:05:11;7.70;;;5.83;;
6093;SDS011;19964;42.060;24.700;2023-11-22T01:07:38;7.10;;;5.90;;
6093;SDS011;19964;42.060;24.700;2023-11-22T01:10:05;9.07;;;5.67;;
6093;SDS011;19964;42.060;24.700;2023-11-22T01:12:33;6.70;;;6.20;;
6093;SDS011;19964;42.060;24.700;2023-11-22T01:15:00;6.07;;;5.50;;
6093;SDS011;19964;42.060;24.700;2023-11-22T01:17:28;7.40;;;6.70;;
6093;SDS011;19964;42.060;24.700;2023-11-22T01:19:54;8.13;;;7.03;;
6093;SDS011;19964;42.060;24.700;2023-11-22T01:22:23;7.43;;;6.30;;
6093;SDS011;19964;42.060;24.700;2023-11-22T01:24:50;8.47;;;7.23;;
6093;SDS011;19964;42.060;24.700;2023-11-22T01:27:17;7.80;;;6.30;;
6093;SDS011;19964;42.060;24.700;2023-11-22T01:29:44;5.53;;;5.07;;
6093;SDS011;19964;42.060;24.700;2023-11-22T01:32:10;5.83;;;5.23;;
6093;SDS011;19964;42.060;24.700;2023-11-22T01:34:39;5.90;;;4.90;;
6093;SDS011;19964;42.060;24.700;2023-11-22T01:37:06;6.10;;;5.60;;
6093;SDS011;19964;42.060;24.700;2023-11-22T01:39:33;8.17;;;5.80;;
6093;SDS011;19964;42.060;24.700;2023-11-22T01:41:59;5.30;;;4.80;;
6093;SDS011;19964;42.060;24.700;2023-11-22T01:44:26;5.70;;;5.20;;
6093;SDS011;19964;42.060;24.700;2023-11-22T01:46:53;5.73;;;5.23;;
6093;SDS011;19964;42.060;24.700;2023-11-22T01:49:20;5.73;;;5.23;;
6093;SDS011;19964;42.060;24.700;2023-11-22T01:51:50;10.13;;;5.90;;
6093;SDS011;19964;42.060;24.700;2023-11-22T01:54:17;5.80;;;5.30;;
6093;SDS011;19964;42.060;24.700;2023-11-22T01:56:46;6.27;;;5.67;;
6093;SDS011;19964;42.060;24.700;2023-11-22T01:59:13;6.93;;;5.60;;
6093;SDS011;19964;42.060;24.700;2023-11-22T02:01:40;5.70;;;5.20;;
6093;SDS011;19964;42.060;24.700;2023-11-22T02:04:07;7.10;;;5.40;;
6093;SDS011;19964;42.060;24.700;2023-11-22T02:06:34;8.50;;;5.33;;
6093;SDS011;19964;42.060;24.700;2023-11-22T02:09:03;6.03;;;5.50;;
6093;SDS011;19964;42.060;24.700;2023-11-22T02:11:30;7.23;;;6.53;;
6093;SDS011;19964;42.060;24.700;2023-11-22T02:13:57;6.20;;;5.60;;
6093;SDS011;19964;42.060;24.700;2023-11-22T02:16:23;6.43;;;5.83;;
6093;SDS011;19964;42.060;24.700;2023-11-22T02:18:50;6.17;;;5.57;;
6093;SDS011;19964;42.060;24.700;2023-11-22T02:21:17;7.13;;;5.40;;
6093;SDS011;19964;42.060;24.700;2023-11-22T02:23:48;8.20;;;6.30;;
6093;SDS011;19964;42.060;24.700;2023-11-22T02:26:14;6.57;;;5.97;;
6093;SDS011;19964;42.060;24.700;2023-11-22T02:28:43;6.70;;;6.10;;
6093;SDS011;19964;42.060;24.700;2023-11-22T02:31:09;6.87;;;6.13;;
6093;SDS011;19964;42.060;24.700;2023-11-22T02:33:36;7.30;;;6.60;;
6093;SDS011;19964;42.060;24.700;2023-11-22T02:36:03;9.13;;;7.23;;
6093;SDS011;19964;42.060;24.700;2023-11-22T02:38:31;11.17;;;6.50;;
6093;SDS011;19964;42.060;24.700;2023-11-22T02:41:00;9.77;;;6.23;;
6093;SDS011;19964;42.060;24.700;2023-11-22T02:43:29;6.80;;;6.20;;
6093;SDS011;19964;42.060;24.700;2023-11-22T02:45:56;8.20;;;7.40;;
6093;SDS011;19964;42.060;24.700;2023-11-22T02:48:23;7.20;;;6.57;;
6093;SDS011;19964;42.060;24.700;2023-11-22T02:50:50;8.60;;;7.07;;
6093;SDS011;19964;42.060;24.700;2023-11-22T02:53:19;9.00;;;7.53;;
6093;SDS011;19964;42.060;24.700;2023-11-22T02:55:46;9.50;;;6.70;;
6093;SDS011;19964;42.060;24.700;2023-11-22T02:58:15;9.40;;;7.20;;
6093;SDS011;19964;42.060;24.700;2023-11-22T03:00:42;7.77;;;6.97;;
6093;SDS011;19964;42.060;24.700;2023-11-22T03:03:09;9.03;;;7.83;;
6093;SDS011;19964;42.060;24.700;2023-11-22T03:05:36;8.90;;;7.70;;
6093;SDS011;19964;42.060;24.700;2023-11-22T03:08:03;8.43;;;7.23;;
6093;SDS011;19964;42.060;24.700;2023-11-22T03:10:32;11.30;;;8.37;;
6093;SDS011;19964;42.060;24.700;2023-11-22T03:12:59;9.17;;;7.80;;
6093;SDS011;19964;42.060;24.700;2023-11-22T03:15:27;14.13;;;8.40;;
6093;SDS011;19964;42.060;24.700;2023-11-22T03:17:54;9.13;;;7.20;;
6093;SDS011;19964;42.060;24.700;2023-11-22T03:20:21;8.43;;;7.57;;
6093;SDS011;19964;42.060;24.700;2023-11-22T03:22:47;9.80;;;7.63;;
6093;SDS011;19964;42.060;24.700;2023-11-22T03:25:15;8.33;;;7.23;;
6093;SDS011;19964;42.060;24.700;2023-11-22T03:27:43;10.83;;;7.60;;
6093;SDS011;19964;42.060;24.700;2023-11-22T03:30:12;12.53;;;7.90;;
6093;SDS011;19964;42.060;24.700;2023-11-22T03:32:41;14.33;;;8.57;;
6093;SDS011;19964;42.060;24.700;2023-11-22T03:35:09;8.60;;;7.70;;
6093;SDS011;19964;42.060;24.700;2023-11-22T03:37:37;10.90;;;7.57;;
6093;SDS011;19964;42.060;24.700;2023-11-22T03:40:05;12.87;;;8.40;;
6093;SDS011;19964;42.060;24.700;2023-11-22T03:42:32;11.27;;;7.87;;
6093;SDS011;19964;42.060;24.700;2023-11-22T03:45:02;16.73;;;8.20;;
6093;SDS011;19964;42.060;24.700;2023-11-22T03:47:29;9.53;;;7.87;;
6093;SDS011;19964;42.060;24.700;2023-11-22T03:49:58;12.23;;;8.33;;
6093;SDS011;19964;42.060;24.700;2023-11-22T03:52:25;11.93;;;8.37;;
6093;SDS011;19964;42.060;24.700;2023-11-22T03:54:53;9.63;;;7.50;;
6093;SDS011;19964;42.060;24.700;2023-11-22T03:57:20;10.83;;;8.20;;
6093;SDS011;19964;42.060;24.700;2023-11-22T03:59:47;10.07;;;7.97;;
6093;SDS011;19964;42.060;24.700;2023-11-22T04:02:13;10.60;;;7.63;;
6093;SDS011;19964;42.060;24.700;2023-11-22T04:04:41;9.13;;;7.17;;
6093;SDS011;19964;42.060;24.700;2023-11-22T04:07:09;12.80;;;8.50;;
6093;SDS011;19964;42.060;24.700;2023-11-22T04:09:36;10.20;;;8.23;;
6093;SDS011;19964;42.060;24.700;2023-11-22T04:12:03;10.77;;;8.33;;
6093;SDS011;19964;42.060;24.700;2023-11-22T04:14:30;11.03;;;7.40;;
6093;SDS011;19964;42.060;24.700;2023-11-22T04:16:57;10.80;;;6.67;;
6093;SDS011;19964;42.060;24.700;2023-11-22T04:19:24;8.90;;;7.20;;
6093;SDS011;19964;42.060;24.700;2023-11-22T04:21:51;8.47;;;7.60;;
6093;SDS011;19964;42.060;24.700;2023-11-22T04:24:20;7.93;;;7.13;;
6093;SDS011;19964;42.060;24.700;2023-11-22T04:26:47;9.17;;;7.00;;
6093;SDS011;19964;42.060;24.700;2023-11-22T04:29:14;10.00;;;7.97;;
6093;SDS011;19964;42.060;24.700;2023-11-22T04:31:42;8.87;;;7.97;;
6093;SDS011;19964;42.060;24.700;2023-11-22T04:34:09;11.30;;;8.20;;
6093;SDS011;19964;42.060;24.700;2023-11-22T04:36:36;12.03;;;8.60;;
6093;SDS011;19964;42.060;24.700;2023-11-22T04:39:03;12.47;;;8.67;;
6093;SDS011;19964;42.060;24.700;2023-11-22T04:41:33;9.77;;;8.03;;
6093;SDS011;19964;42.060;24.700;2023-11-22T04:44:00;9.97;;;8.07;;
6093;SDS011;19964;42.060;24.700;2023-11-22T04:46:27;13.20;;;9.27;;
6093;SDS011;19964;42.060;24.700;2023-11-22T04:48:54;13.90;;;9.10;;
6093;SDS011;19964;42.060;24.700;2023-11-22T04:51:22;10.97;;;8.23;;
6093;SDS011;19964;42.060;24.700;2023-11-22T04:53:49;7.67;;;6.53;;
6093;SDS011;19964;42.060;24.700;2023-11-22T04:56:16;11.50;;;7.43;;
6093;SDS011;19964;42.060;24.700;2023-11-22T04:58:44;16.03;;;8.77;;
6093;SDS011;19964;42.060;24.700;2023-11-22T05:01:11;11.00;;;7.37;;
6093;SDS011;19964;42.060;24.700;2023-11-22T05:03:38;11.13;;;8.17;;
6093;SDS011;19964;42.060;24.700;2023-11-22T05:06:05;7.90;;;7.00;;
6093;SDS011;19964;42.060;24.700;2023-11-22T05:08:32;7.77;;;7.00;;
6093;SDS011;19964;42.060;24.700;2023-11-22T05:10:59;8.77;;;7.87;;
6093;SDS011;19964;42.060;24.700;2023-11-22T05:13:26;8.57;;;7.20;;
6093;SDS011;19964;42.060;24.700;2023-11-22T05:15:54;7.97;;;7.17;;
6093;SDS011;19964;42.060;24.700;2023-11-22T05:18:21;7.33;;;6.70;;
6093;SDS011;19964;42.060;24.700;2023-11-22T05:20:48;7.87;;;7.07;;
6093;SDS011;19964;42.060;24.700;2023-11-22T05:23:15;9.03;;;7.50;;
6093;SDS011;19964;42.060;24.700;2023-11-22T05:25:41;8.10;;;6.83;;
6093;SDS011;19964;42.060;24.700;2023-11-22T05:28:09;7.17;;;6.47;;
6093;SDS011;19964;42.060;24.700;2023-11-22T05:30:35;7.87;;;6.97;;
6093;SDS011;19964;42.060;24.700;2023-11-22T05:33:04;7.90;;;6.37;;
6093;SDS011;19964;42.060;24.700;2023-11-22T05:35:30;7.87;;;6.40;;
6093;SDS011;19964;42.060;24.700;2023-11-22T05:37:58;7.67;;;6.90;;
6093;SDS011;19964;42.060;24.700;2023-11-22T05:40:25;7.30;;;6.53;;
6093;SDS011;19964;42.060;24.700;2023-11-22T05:42:52;6.53;;;5.93;;
6093;SDS011;19964;42.060;24.700;2023-11-22T05:45:18;6.97;;;6.27;;
6093;SDS011;19964;42.060;24.700;2023-11-22T05:47:45;7.40;;;6.70;;
6093;SDS011;19964;42.060;24.700;2023-11-22T05:50:14;7.93;;;5.77;;
6093;SDS011;19964;42.060;24.700;2023-11-22T05:52:41;6.77;;;6.13;;
6093;SDS011;19964;42.060;24.700;2023-11-22T05:55:08;7.43;;;6.53;;
6093;SDS011;19964;42.060;24.700;2023-11-22T05:57:35;8.60;;;6.37;;
6093;SDS011;19964;42.060;24.700;2023-11-22T06:00:02;6.87;;;6.27;;
6093;SDS011;19964;42.060;24.700;2023-11-22T06:02:29;7.50;;;6.70;;
6093;SDS011;19964;42.060;24.700;2023-11-22T06:04:55;8.37;;;6.43;;
6093;SDS011;19964;42.060;24.700;2023-11-22T06:07:23;7.17;;;5.90;;
6093;SDS011;19964;42.060;24.700;2023-11-22T06:09:50;6.53;;;5.60;;
6093;SDS011;19964;42.060;24.700;2023-11-22T06:12:17;8.93;;;6.10;;
6093;SDS011;19964;42.060;24.700;2023-11-22T06:14:45;6.93;;;6.03;;
6093;SDS011;19964;42.060;24.700;2023-11-22T06:17:12;7.50;;;6.37;;
6093;SDS011;19964;42.060;24.700;2023-11-22T06:19:39;9.23;;;6.33;;
6093;SDS011;19964;42.060;24.700;2023-11-22T06:22:06;6.30;;;5.70;;
6093;SDS011;19964;42.060;24.700;2023-11-22T06:24:34;7.07;;;6.37;;
6093;SDS011;19964;42.060;24.700;2023-11-22T06:27:01;6.97;;;6.27;;
6093;SDS011;19964;42.060;24.700;2023-11-22T06:29:28;8.17;;;6.20;;
6093;SDS011;19964;42.060;24.700;2023-11-22T06:31:55;7.37;;;6.23;;
6093;SDS011;19964;42.060;24.700;2023-11-22T06:34:22;6.63;;;5.50;;
6093;SDS011;19964;42.060;24.700;2023-11-22T06:36:49;6.87;;;6.10;;
6093;SDS011;19964;42.060;24.700;2023-11-22T06:39:16;8.47;;;5.90;;
6093;SDS011;19964;42.060;24.700;2023-11-22T06:41:44;6.87;;;6.17;;
6093;SDS011;19964;42.060;24.700;2023-11-22T06:44:11;6.40;;;5.80;;
6093;SDS011;19964;42.060;24.700;2023-11-22T06:46:38;7.77;;;6.23;;
6093;SDS011;19964;42.060;24.700;2023-11-22T06:49:05;10.63;;;6.80;;
6093;SDS011;19964;42.060;24.700;2023-11-22T06:51:31;8.00;;;6.90;;
6093;SDS011;19964;42.060;24.700;2023-11-22T06:53:58;7.37;;;6.40;;
6093;SDS011;19964;42.060;24.700;2023-11-22T06:56:25;6.83;;;6.13;;
6093;SDS011;19964;42.060;24.700;2023-11-22T06:58:54;9.77;;;6.63;;
6093;SDS011;19964;42.060;24.700;2023-11-22T07:01:22;7.13;;;6.50;;
6093;SDS011;19964;42.060;24.700;2023-11-22T07:03:50;15.93;;;13.03;;
6093;SDS011;19964;42.060;24.700;2023-11-22T07:06:18;36.70;;;25.00;;
6093;SDS011;19964;42.060;24.700;2023-11-22T07:08:47;23.00;;;16.57;;
6093;SDS011;19964;42.060;24.700;2023-11-22T07:11:20;30.07;;;18.27;;
6093;SDS011;19964;42.060;24.700;2023-11-22T07:13:48;31.73;;;18.97;;
6093;SDS011;19964;42.060;24.700;2023-11-22T07:16:16;36.37;;;19.53;;
6093;SDS011;19964;42.060;24.700;2023-11-22T07:18:44;42.83;;;20.83;;
6093;SDS011;19964;42.060;24.700;2023-11-22T07:21:11;34.10;;;18.60;;
6093;SDS011;19964;42.060;24.700;2023-11-22T07:23:38;34.77;;;20.17;;
6093;SDS011;19964;42.060;24.700;2023-11-22T07:26:05;35.00;;;18.70;;
6093;SDS011;19964;42.060;24.700;2023-11-22T07:28:32;25.33;;;17.43;;
6093;SDS011;19964;42.060;24.700;2023-11-22T07:31:00;31.00;;;18.33;;
6093;SDS011;19964;42.060;24.700;2023-11-22T07:33:29;30.10;;;18.80;;
6093;SDS011;19964;42.060;24.700;2023-11-22T07:35:56;25.87;;;16.83;;
6093;SDS011;19964;42.060;24.700;2023-11-22T07:38:23;31.40;;;18.40;;
6093;SDS011;19964;42.060;24.700;2023-11-22T07:40:50;26.30;;;18.67;;
6093;SDS011;19964;42.060;24.700;2023-11-22T07:43:17;26.83;;;18.70;;
6093;SDS011;19964;42.060;24.700;2023-11-22T07:45:44;19.67;;;15.67;;
6093;SDS011;19964;42.060;24.700;2023-11-22T07:48:13;21.70;;;14.87;;
6093;SDS011;19964;42.060;24.700;2023-11-22T07:50:42;21.97;;;14.13;;
6093;SDS011;19964;42.060;24.700;2023-11-22T07:53:10;15.27;;;11.67;;
6093;SDS011;19964;42.060;24.700;2023-11-22T07:55:37;17.80;;;11.83;;
6093;SDS011;19964;42.060;24.700;2023-11-22T07:58:04;19.00;;;12.90;;
6093;SDS011;19964;42.060;24.700;2023-11-22T08:00:32;22.10;;;18.27;;
6093;SDS011;19964;42.060;24.700;2023-11-22T08:03:00;21.83;;;16.03;;
6093;SDS011;19964;42.060;24.700;2023-11-22T08:05:28;20.60;;;15.80;;
6093;SDS011;19964;42.060;24.700;2023-11-22T08:08:01;19.23;;;15.53;;
6093;SDS011;19964;42.060;24.700;2023-11-22T08:10:31;27.03;;;15.77;;
6093;SDS011;19964;42.060;24.700;2023-11-22T08:12:59;23.93;;;17.63;;
6093;SDS011;19964;42.060;24.700;2023-11-22T08:15:27;27.43;;;17.67;;
6093;SDS011;19964;42.060;24.700;2023-11-22T08:17:56;27.17;;;18.70;;
6093;SDS011;19964;42.060;24.700;2023-11-22T08:20:23;27.90;;;18.63;;
6093;SDS011;19964;42.060;24.700;2023-11-22T08:22:50;32.97;;;19.50;;
6093;SDS011;19964;42.060;24.700;2023-11-22T08:25:18;27.20;;;19.53;;
6093;SDS011;19964;42.060;24.700;2023-11-22T08:27:45;30.37;;;19.70;;
6093;SDS011;19964;42.060;24.700;2023-11-22T08:30:12;29.53;;;20.10;;
6093;SDS011;19964;42.060;24.700;2023-11-22T08:32:40;27.50;;;18.80;;
6093;SDS011;19964;42.060;24.700;2023-11-22T08:35:09;25.90;;;18.10;;
6093;SDS011;19964;42.060;24.700;2023-11-22T08:37:39;29.17;;;18.73;;
6093;SDS011;19964;42.060;24.700;2023-11-22T08:40:07;40.57;;;27.50;;
6093;SDS011;19964;42.060;24.700;2023-11-22T08:42:37;153.80;;;77.27;;
6093;SDS011;19964;42.060;24.700;2023-11-22T08:45:06;49.00;;;27.53;;
6093;SDS011;19964;42.060;24.700;2023-11-22T08:47:36;26.60;;;17.53;;
6093;SDS011;19964;42.060;24.700;2023-11-22T08:50:05;58.83;;;41.20;;
6093;SDS011;19964;42.060;24.700;2023-11-22T08:52:33;23.20;;;17.23;;
6093;SDS011;19964;42.060;24.700;2023-11-22T08:55:01;26.67;;;20.50;;
6093;SDS011;19964;42.060;24.700;2023-11-22T08:57:29;30.73;;;23.13;;
6093;SDS011;19964;42.060;24.700;2023-11-22T08:59:58;26.40;;;19.97;;
6093;SDS011;19964;42.060;24.700;2023-11-22T09:02:31;19.60;;;15.90;;
6093;SDS011;19964;42.060;24.700;2023-11-22T09:04:57;19.57;;;14.43;;
6093;SDS011;19964;42.060;24.700;2023-11-22T09:07:24;30.23;;;21.00;;
6093;SDS011;19964;42.060;24.700;2023-11-22T09:09:51;33.87;;;26.80;;
6093;SDS011;19964;42.060;24.700;2023-11-22T09:12:18;18.13;;;15.00;;
6093;SDS011;19964;42.060;24.700;2023-11-22T09:14:46;22.10;;;17.03;;
6093;SDS011;19964;42.060;24.700;2023-11-22T09:17:14;27.60;;;19.33;;
6093;SDS011;19964;42.060;24.700;2023-11-22T09:19:41;27.60;;;20.30;;
6093;SDS011;19964;42.060;24.700;2023-11-22T09:22:08;29.87;;;21.23;;
6093;SDS011;19964;42.060;24.700;2023-11-22T09:24:36;30.40;;;21.50;;
6093;SDS011;19964;42.060;24.700;2023-11-22T09:27:03;32.57;;;21.43;;
6093;SDS011;19964;42.060;24.700;2023-11-22T09:29:31;30.53;;;22.90;;
6093;SDS011;19964;42.060;24.700;2023-11-22T09:31:59;25.43;;;18.60;;
6093;SDS011;19964;42.060;24.700;2023-11-22T09:34:28;27.43;;;18.80;;
6093;SDS011;19964;42.060;24.700;2023-11-22T09:36:56;24.40;;;17.43;;
6093;SDS011;19964;42.060;24.700;2023-11-22T09:39:24;25.83;;;19.17;;
6093;SDS011;19964;42.060;24.700;2023-11-22T09:41:51;26.77;;;19.90;;
6093;SDS011;19964;42.060;24.700;2023-11-22T09:44:18;31.77;;;21.23;;
6093;SDS011;19964;42.060;24.700;2023-11-22T09:46:47;34.93;;;23.07;;
6093;SDS011;19964;42.060;24.700;2023-11-22T09:49:20;36.20;;;24.80;;
6093;SDS011;19964;42.060;24.700;2023-11-22T09:51:54;38.03;;;26.20;;
6093;SDS011;19964;42.060;24.700;2023-11-22T09:54:24;38.63;;;26.03;;
6093;SDS011;19964;42.060;24.700;2023-11-22T09:56:56;42.37;;;28.10;;
6093;SDS011;19964;42.060;24.700;2023-11-22T09:59:27;41.83;;;27.03;;
6093;SDS011;19964;42.060;24.700;2023-11-22T10:01:56;38.93;;;26.53;;
6093;SDS011;19964;42.060;24.700;2023-11-22T10:04:25;36.73;;;25.87;;
6093;SDS011;19964;42.060;24.700;2023-11-22T10:06:55;37.30;;;25.73;;
6093;SDS011;19964;42.060;24.700;2023-11-22T10:09:24;39.87;;;27.03;;
6093;SDS011;19964;42.060;24.700;2023-11-22T10:11:52;41.80;;;29.10;;
6093;SDS011;19964;42.060;24.700;2023-11-22T10:14:22;41.37;;;28.63;;
6093;SDS011;19964;42.060;24.700;2023-11-22T10:16:57;41.63;;;28.73;;
6093;SDS011;19964;42.060;24.700;2023-11-22T10:19:24;38.07;;;28.00;;
6093;SDS011;19964;42.060;24.700;2023-11-22T10:22:03;43.13;;;28.47;;
6093;SDS011;19964;42.060;24.700;2023-11-22T10:24:30;37.93;;;28.13;;
6093;SDS011;19964;42.060;24.700;2023-11-22T10:26:58;38.17;;;28.37;;
6093;SDS011;19964;42.060;24.700;2023-11-22T10:29:26;39.30;;;28.03;;
6093;SDS011;19964;42.060;24.700;2023-11-22T10:31:53;36.83;;;24.73;;
6093;SDS011;19964;42.060;24.700;2023-11-22T10:34:20;30.57;;;21.53;;
6093;SDS011;19964;42.060;24.700;2023-11-22T10:36:48;26.97;;;19.77;;
6093;SDS011;19964;42.060;24.700;2023-11-22T10:39:19;21.93;;;17.67;;
6093;SDS011;19964;42.060;24.700;2023-11-22T10:41:46;24.47;;;17.80;;
6093;SDS011;19964;42.060;24.700;2023-11-22T10:44:15;28.97;;;19.30;;
6093;SDS011;19964;42.060;24.700;2023-11-22T10:46:42;22.63;;;18.53;;
6093;SDS011;19964;42.060;24.700;2023-11-22T10:49:10;23.87;;;19.00;;
6093;SDS011;19964;42.060;24.700;2023-11-22T10:51:37;21.40;;;18.10;;
6093;SDS011;19964;42.060;24.700;2023-11-22T10:54:07;24.03;;;19.07;;
6093;SDS011;19964;42.060;24.700;2023-11-22T10:56:38;29.17;;;19.60;;
6093;SDS011;19964;42.060;24.700;2023-11-22T10:59:09;27.70;;;21.53;;
6093;SDS011;19964;42.060;24.700;2023-11-22T11:01:38;28.57;;;22.33;;
6093;SDS011;19964;42.060;24.700;2023-11-22T11:04:11;27.83;;;22.43;;
6093;SDS011;19964;42.060;24.700;2023-11-22T11:06:46;28.37;;;21.33;;
6093;SDS011;19964;42.060;24.700;2023-11-22T11:09:17;29.50;;;22.30;;
6093;SDS011;19964;42.060;24.700;2023-11-22T11:11:51;33.60;;;23.07;;
6093;SDS011;19964;42.060;24.700;2023-11-22T11:14:18;29.90;;;22.30;;
6093;SDS011;19964;42.060;24.700;2023-11-22T11:16:45;32.95;;;23.40;;
6093;SDS011;19964;42.060;24.700;2023-11-22T11:19:15;34.87;;;23.40;;
6093;SDS011;19964;42.060;24.700;2023-11-22T11:21:43;35.37;;;22.90;;
6093;SDS011;19964;42.060;24.700;2023-11-22T11:24:10;33.47;;;23.63;;
6093;SDS011;19964;42.060;24.700;2023-11-22T11:26:37;32.20;;;23.57;;
6093;SDS011;19964;42.060;24.700;2023-11-22T11:29:05;34.20;;;25.33;;
6093;SDS011;19964;42.060;24.700;2023-11-22T11:31:33;38.83;;;25.63;;
6093;SDS011;19964;42.060;24.700;2023-11-22T11:34:05;36.47;;;25.70;;
6093;SDS011;19964;42.060;24.700;2023-11-22T11:36:32;36.93;;;25.90;;
6093;SDS011;19964;42.060;24.700;2023-11-22T11:39:00;38.93;;;25.57;;
6093;SDS011;19964;42.060;24.700;2023-11-22T11:41:29;37.77;;;25.43;;
6093;SDS011;19964;42.060;24.700;2023-11-22T11:43:57;31.67;;;23.93;;
6093;SDS011;19964;42.060;24.700;2023-11-22T11:46:27;31.00;;;22.53;;
6093;SDS011;19964;42.060;24.700;2023-11-22T11:48:55;29.77;;;21.63;;
6093;SDS011;19964;42.060;24.700;2023-11-22T11:51:23;36.37;;;21.77;;
6093;SDS011;19964;42.060;24.700;2023-11-22T11:53:51;33.80;;;22.30;;
6093;SDS011;19964;42.060;24.700;2023-11-22T11:56:18;29.23;;;21.67;;
6093;SDS011;19964;42.060;24.700;2023-11-22T11:58:45;26.47;;;20.70;;
6093;SDS011;19964;42.060;24.700;2023-11-22T12:01:13;32.73;;;21.03;;
6093;SDS011;19964;42.060;24.700;2023-11-22T12:03:43;25.43;;;19.93;;
6093;SDS011;19964;42.060;24.700;2023-11-22T12:06:10;128.87;;;74.67;;
6093;SDS011;19964;42.060;24.700;2023-11-22T12:08:40;26.63;;;20.43;;
6093;SDS011;19964;42.060;24.700;2023-11-22T12:11:07;30.70;;;20.60;;
6093;SDS011;19964;42.060;24.700;2023-11-22T12:13:35;34.10;;;21.53;;
6093;SDS011;19964;42.060;24.700;2023-11-22T12:16:04;28.43;;;20.90;;
6093;SDS011;19964;42.060;24.700;2023-11-22T12:18:39;29.37;;;20.10;;
6093;SDS011;19964;42.060;24.700;2023-11-22T12:21:07;101.33;;;46.17;;
6093;SDS011;19964;42.060;24.700;2023-11-22T12:23:38;33.00;;;22.83;;
6093;SDS011;19964;42.060;24.700;2023-11-22T12:26:09;33.23;;;23.73;;
6093;SDS011;19964;42.060;24.700;2023-11-22T12:28:38;45.07;;;26.63;;
6093;SDS011;19964;42.060;24.700;2023-11-22T12:31:08;27.50;;;22.30;;
6093;SDS011;19964;42.060;24.700;2023-11-22T12:33:36;26.73;;;20.60;;
6093;SDS011;19964;42.060;24.700;2023-11-22T12:36:05;26.77;;;20.17;;
6093;SDS011;19964;42.060;24.700;2023-11-22T12:38:35;28.33;;;21.03;;
6093;SDS011;19964;42.060;24.700;2023-11-22T12:41:03;31.03;;;20.57;;
6093;SDS011;19964;42.060;24.700;2023-11-22T12:43:32;31.30;;;20.23;;
6093;SDS011;19964;42.060;24.700;2023-11-22T12:45:59;27.73;;;20.10;;
6093;SDS011;19964;42.060;24.700;2023-11-22T12:48:27;27.37;;;20.00;;
6093;SDS011;19964;42.060;24.700;2023-11-22T12:50:55;25.83;;;19.33;;
6093;SDS011;19964;42.060;24.700;2023-11-22T12:53:23;29.60;;;21.47;;
6093;SDS011;19964;42.060;24.700;2023-11-22T12:55:54;29.50;;;20.43;;
6093;SDS011;19964;42.060;24.700;2023-11-22T12:58:22;27.23;;;20.67;;
6093;SDS011;19964;42.060;24.700;2023-11-22T13:00:51;24.67;;;19.93;;
6093;SDS011;19964;42.060;24.700;2023-11-22T13:03:23;29.00;;;19.40;;
6093;SDS011;19964;42.060;24.700;2023-11-22T13:05:50;23.60;;;18.87;;
6093;SDS011;19964;42.060;24.700;2023-11-22T13:08:18;26.63;;;19.07;;
6093;SDS011;19964;42.060;24.700;2023-11-22T13:10:47;29.23;;;19.37;;
6093;SDS011;19964;42.060;24.700;2023-11-22T13:13:20;24.23;;;19.97;;
6093;SDS011;19964;42.060;24.700;2023-11-22T13:15:47;22.83;;;18.63;;
6093;SDS011;19964;42.060;24.700;2023-11-22T13:18:14;29.67;;;21.30;;
6093;SDS011;19964;42.060;24.700;2023-11-22T13:20:41;29.03;;;21.10;;
6093;SDS011;19964;42.060;24.700;2023-11-22T13:23:08;27.00;;;19.80;;
6093;SDS011;19964;42.060;24.700;2023-11-22T13:25:35;25.33;;;18.83;;
6093;SDS011;19964;42.060;24.700;2023-11-22T13:28:03;29.17;;;19.23;;
6093;SDS011;19964;42.060;24.700;2023-11-22T13:30:32;24.90;;;20.10;;
6093;SDS011;19964;42.060;24.700;2023-11-22T13:32:59;27.67;;;20.27;;
6093;SDS011;19964;42.060;24.700;2023-11-22T13:35:27;25.60;;;20.10;;
6093;SDS011;19964;42.060;24.700;2023-11-22T13:37:56;24.13;;;17.63;;
6093;SDS011;19964;42.060;24.700;2023-11-22T13:40:24;24.40;;;16.90;;
6093;SDS011;19964;42.060;24.700;2023-11-22T13:42:55;19.23;;;16.63;;
6093;SDS011;19964;42.060;24.700;2023-11-22T13:45:22;21.40;;;16.43;;
6093;SDS011;19964;42.060;24.700;2023-11-22T13:47:53;22.00;;;16.23;;
6093;SDS011;19964;42.060;24.700;2023-11-22T13:50:24;22.43;;;16.00;;
6093;SDS011;19964;42.060;24.700;2023-11-22T13:52:52;20.93;;;16.67;;
6093;SDS011;19964;42.060;24.700;2023-11-22T13:55:20;20.57;;;15.67;;
6093;SDS011;19964;42.060;24.700;2023-11-22T13:57:48;20.53;;;15.13;;
6093;SDS011;19964;42.060;24.700;2023-11-22T14:00:17;21.63;;;16.57;;
6093;SDS011;19964;42.060;24.700;2023-11-22T14:02:45;23.03;;;16.37;;
6093;SDS011;19964;42.060;24.700;2023-11-22T14:05:13;23.67;;;16.77;;
6093;SDS011;19964;42.060;24.700;2023-11-22T14:07:40;27.30;;;15.77;;
6093;SDS011;19964;42.060;24.700;2023-11-22T14:10:08;20.27;;;16.07;;
6093;SDS011;19964;42.060;24.700;2023-11-22T14:12:36;20.20;;;15.17;;
6093;SDS011;19964;42.060;24.700;2023-11-22T14:15:03;19.23;;;15.20;;
6093;SDS011;19964;42.060;24.700;2023-11-22T14:17:31;20.13;;;14.70;;
6093;SDS011;19964;42.060;24.700;2023-11-22T14:19:58;22.10;;;15.33;;
6093;SDS011;19964;42.060;24.700;2023-11-22T14:22:26;24.33;;;17.60;;
6093;SDS011;19964;42.060;24.700;2023-11-22T14:24:53;21.90;;;17.73;;
6093;SDS011;19964;42.060;24.700;2023-11-22T14:27:20;20.30;;;16.13;;
6093;SDS011;19964;42.060;24.700;2023-11-22T14:29:47;21.43;;;16.43;;
6093;SDS011;19964;42.060;24.700;2023-11-22T14:32:16;20.90;;;17.50;;
6093;SDS011;19964;42.060;24.700;2023-11-22T14:34:44;27.70;;;20.77;;
6093;SDS011;19964;42.060;24.700;2023-11-22T14:37:12;34.77;;;22.20;;